Time;durP1;ratioP1;P1;durP2;ratioP2;P2;SDS_P1;SDS_P2;PMS_P1;PMS_P2;Temp;Humidity;BMP_temperature;BMP_pressure;BME280_temperature;BME280_humidity;BME280_pressure;Samples;Min_cycle;Max_cycle;Signal;HPM_P1;HPM_P2
2022/04/28 00:00:04;;;;;;;7.47;6.75;;;6.30;99.90;;;;;;5056276;28;20175;-73
2022/04/28 00:02:30;;;;;;;8.15;7.35;;;6.30;99.90;;;;;;5054813;28;20188;-72
2022/04/28 00:04:56;;;;;;;7.65;6.93;;;6.20;99.90;;;;;;5057188;28;20214;-73
2022/04/28 00:07:22;;;;;;;7.40;6.80;;;6.00;99.90;;;;;;5053649;28;20176;-73
2022/04/28 00:09:47;;;;;;;7.03;6.43;;;6.00;99.90;;;;;;5059602;28;20248;-73
2022/04/28 00:12:13;;;;;;;8.15;7.20;;;5.80;99.90;;;;;;5051948;28;20184;-73
2022/04/28 00:14:38;;;;;;;7.97;7.20;;;5.80;99.90;;;;;;5060611;28;20187;-73
2022/04/28 00:17:05;;;;;;;10.10;7.70;;;5.70;99.90;;;;;;5054403;28;20700;-72
2022/04/28 00:19:30;;;;;;;8.02;7.28;;;5.80;99.90;;;;;;5059702;28;20232;-73
2022/04/28 00:21:56;;;;;;;7.70;7.00;;;5.80;99.90;;;;;;5055833;28;20205;-72
2022/04/28 00:24:21;;;;;;;8.00;7.30;;;5.90;99.90;;;;;;5054757;28;20218;-73
2022/04/28 00:26:47;;;;;;;7.78;7.18;;;5.90;99.90;;;;;;5057584;28;20190;-71
2022/04/28 00:29:13;;;;;;;7.90;7.30;;;5.80;99.90;;;;;;5056672;28;20176;-71
2022/04/28 00:31:38;;;;;;;8.37;7.57;;;5.70;99.90;;;;;;5052141;28;20523;-71
2022/04/28 00:34:04;;;;;;;8.02;7.43;;;5.60;99.90;;;;;;5054062;28;20179;-71
2022/04/28 00:36:30;;;;;;;8.15;7.45;;;5.70;99.90;;;;;;5053837;28;20261;-72
2022/04/28 00:38:56;;;;;;;8.27;7.53;;;5.70;99.90;;;;;;5053083;28;20187;-72
2022/04/28 00:41:21;;;;;;;8.23;6.70;;;5.70;99.90;;;;;;5052394;28;20195;-72
2022/04/28 00:43:52;;;;;;;8.57;7.78;;;5.70;99.90;;;;;;5058930;28;20245;-71
2022/04/28 00:46:18;;;;;;;8.25;7.50;;;5.70;99.90;;;;;;5055049;28;20235;-72
2022/04/28 00:51:31;;;;;;;7.43;6.77;;;5.70;99.90;;;;;;5052897;28;20187;-72
2022/04/28 00:53:58;;;;;;;7.10;6.53;;;5.60;99.90;;;;;;5059096;28;20180;-72
2022/04/28 00:56:26;;;;;;;8.20;7.50;;;5.50;99.90;;;;;;5051533;28;20575;-72
2022/04/28 00:58:53;;;;;;;9.17;8.27;;;5.50;99.90;;;;;;5061150;28;20190;-72
2022/04/28 01:01:19;;;;;;;8.10;7.30;;;5.40;99.90;;;;;;5047970;28;20184;-72
2022/04/28 01:03:45;;;;;;;9.33;8.43;;;5.30;99.90;;;;;;5057173;28;20547;-72
2022/04/28 01:06:12;;;;;;;8.67;7.87;;;5.20;99.90;;;;;;5045771;28;20789;-72
2022/04/28 01:08:38;;;;;;;8.73;7.83;;;5.20;99.90;;;;;;5055524;28;20179;-72
2022/04/28 01:11:04;;;;;;;8.27;7.50;;;5.20;99.90;;;;;;5043127;28;20177;-72
2022/04/28 01:13:30;;;;;;;9.90;8.90;;;5.20;99.90;;;;;;5055711;28;20177;-72
2022/04/28 01:15:56;;;;;;;8.13;7.43;;;5.10;99.90;;;;;;5051203;28;20248;-72
2022/04/28 01:18:22;;;;;;;8.23;7.53;;;5.10;99.90;;;;;;5047658;28;20187;-72
2022/04/28 01:20:48;;;;;;;8.20;7.50;;;5.10;99.90;;;;;;5051704;28;20180;-72
2022/04/28 01:23:13;;;;;;;7.70;7.03;;;5.10;99.90;;;;;;5054628;28;20179;-72
2022/04/28 01:25:39;;;;;;;8.20;7.50;;;5.10;99.90;;;;;;5047887;28;20203;-72
2022/04/28 01:28:04;;;;;;;8.07;7.37;;;5.10;99.90;;;;;;5048461;28;20176;-72
2022/04/28 01:30:30;;;;;;;7.90;7.30;;;5.10;99.90;;;;;;5052063;28;20527;-73
2022/04/28 01:32:58;;;;;;;7.70;7.07;;;5.00;99.90;;;;;;5056573;28;20285;-72
2022/04/28 01:35:26;;;;;;;7.93;7.13;;;5.00;99.90;;;;;;5046921;28;20229;-73
2022/04/28 01:37:55;;;;;;;8.43;7.63;;;5.20;99.90;;;;;;5048929;28;20191;-72
2022/04/28 01:40:21;;;;;;;7.40;6.70;;;5.20;99.90;;;;;;5047890;28;20187;-72
2022/04/28 01:42:50;;;;;;;7.70;6.97;;;5.30;99.90;;;;;;5052489;28;20267;-72
2022/04/28 01:45:16;;;;;;;7.67;6.93;;;5.30;99.90;;;;;;5053559;28;20680;-72
2022/04/28 01:47:42;;;;;;;8.00;7.20;;;5.20;99.90;;;;;;5055103;28;20837;-72
2022/04/28 01:50:10;;;;;;;8.17;7.37;;;5.30;99.90;;;;;;5059055;28;20176;-72
2022/04/28 01:55:21;;;;;;;7.83;7.10;;;5.20;99.90;;;;;;5054926;28;20932;-72
2022/04/28 01:57:48;;;;;;;7.80;7.07;;;5.00;99.90;;;;;;5052929;28;20246;-73
2022/04/28 02:00:15;;;;;;;8.30;7.60;;;4.90;99.90;;;;;;5054909;28;20188;-73
2022/04/28 02:02:41;;;;;;;7.70;7.10;;;4.80;99.90;;;;;;5063272;28;20179;-72
2022/04/28 02:05:08;;;;;;;8.30;7.40;;;4.90;99.90;;;;;;5058986;28;20216;-72
2022/04/28 02:07:35;;;;;;;7.80;7.10;;;4.90;99.90;;;;;;5040382;28;20666;-72
2022/04/28 02:10:03;;;;;;;8.90;7.23;;;4.90;99.90;;;;;;5057621;28;20180;-72
2022/04/28 02:12:29;;;;;;;8.03;7.40;;;4.90;99.90;;;;;;5059023;28;20172;-72
2022/04/28 02:14:54;;;;;;;8.30;7.47;;;5.00;99.90;;;;;;5037091;28;20196;-71
2022/04/28 02:17:22;;;;;;;8.43;7.63;;;4.90;99.90;;;;;;5053984;28;20585;-71
2022/04/28 02:19:48;;;;;;;8.07;7.37;;;4.80;99.90;;;;;;5061264;28;20179;-71
2022/04/28 02:22:14;;;;;;;8.33;7.63;;;4.70;99.90;;;;;;5051024;28;20661;-71
2022/04/28 02:24:39;;;;;;;8.10;7.40;;;4.80;99.90;;;;;;5052781;28;20280;-71
2022/04/28 02:27:06;;;;;;;8.80;8.00;;;4.80;99.90;;;;;;5058095;28;20206;-71
2022/04/28 02:29:32;;;;;;;8.00;7.30;;;4.80;99.90;;;;;;5054288;28;20540;-72
2022/04/28 02:31:58;;;;;;;8.13;7.47;;;4.70;99.90;;;;;;5054962;28;20180;-71
2022/04/28 02:34:23;;;;;;;8.73;7.87;;;4.60;99.90;;;;;;5062578;28;20186;-73
2022/04/28 02:36:50;;;;;;;8.53;7.73;;;4.50;99.90;;;;;;5059318;28;20215;-73
2022/04/28 02:39:17;;;;;;;9.30;8.40;;;4.40;99.90;;;;;;5055955;28;20665;-72
2022/04/28 02:41:44;;;;;;;8.10;7.47;;;4.40;99.90;;;;;;5045601;28;20198;-73
2022/04/28 02:44:11;;;;;;;8.20;7.50;;;4.40;99.90;;;;;;5052797;28;20231;-72
2022/04/28 02:46:38;;;;;;;8.23;7.53;;;4.40;99.90;;;;;;5054146;28;20228;-72
2022/04/28 02:49:04;;;;;;;8.87;7.97;;;4.30;99.90;;;;;;5057683;28;20183;-72
2022/04/28 02:51:30;;;;;;;8.23;7.33;;;4.30;99.90;;;;;;5057345;28;20271;-72
2022/04/28 02:53:55;;;;;;;8.43;7.63;;;4.30;99.90;;;;;;5054010;28;20270;-72
2022/04/28 02:56:21;;;;;;;8.40;7.60;;;4.40;99.90;;;;;;5049503;28;20210;-73
2022/04/28 02:58:48;;;;;;;8.60;7.83;;;4.50;99.90;;;;;;5059653;28;20426;-72
2022/04/28 03:01:13;;;;;;;8.13;7.43;;;4.50;99.90;;;;;;5052820;28;20235;-73
2022/04/28 03:03:39;;;;;;;7.60;6.87;;;4.50;99.90;;;;;;5052977;28;20212;-73
2022/04/28 03:11:33;;;;;;;9.03;8.10;;;4.40;99.90;;;;;;5055488;28;20234;-72
2022/04/28 03:13:59;;;;;;;8.97;8.17;;;4.30;99.90;;;;;;5052520;28;20598;-72
2022/04/28 03:16:25;;;;;;;9.43;8.50;;;4.20;99.90;;;;;;5051466;28;20216;-72
2022/04/28 03:18:50;;;;;;;8.37;7.57;;;4.20;99.90;;;;;;5062333;28;20236;-73
2022/04/28 03:21:16;;;;;;;9.97;8.97;;;4.20;99.90;;;;;;5047259;28;20188;-74
2022/04/28 03:23:42;;;;;;;8.60;7.87;;;4.10;99.90;;;;;;5033418;28;20279;-73
2022/04/28 03:26:08;;;;;;;8.83;8.13;;;4.10;99.90;;;;;;5051873;28;20276;-73
2022/04/28 03:28:38;;;;;;;9.57;8.67;;;4.10;99.90;;;;;;5055746;28;20180;-73
2022/04/28 03:31:05;;;;;;;12.77;8.47;;;4.10;99.90;;;;;;5049391;28;20199;-73
2022/04/28 03:33:31;;;;;;;8.77;7.97;;;4.00;99.90;;;;;;5058041;28;20219;-73
2022/04/28 03:35:57;;;;;;;8.33;7.53;;;4.00;99.90;;;;;;5057445;28;20199;-73
2022/04/28 03:38:23;;;;;;;9.47;8.53;;;4.00;99.90;;;;;;5056623;28;20244;-73
2022/04/28 03:40:48;;;;;;;8.70;7.90;;;4.00;99.90;;;;;;5045879;28;20181;-73
2022/04/28 03:43:14;;;;;;;8.87;7.97;;;4.00;99.90;;;;;;5054372;28;20556;-73
2022/04/28 03:45:41;;;;;;;9.20;8.30;;;4.00;99.90;;;;;;5052896;28;20593;-72
2022/04/28 03:48:10;;;;;;;9.00;8.20;;;4.00;99.90;;;;;;5060078;28;20186;-72
2022/04/28 03:50:36;;;;;;;8.30;7.60;;;4.00;99.90;;;;;;5052492;28;20239;-73
2022/04/28 03:53:03;;;;;;;9.20;8.40;;;4.00;99.90;;;;;;5054991;28;20275;-73
2022/04/28 03:55:28;;;;;;;9.57;8.63;;;4.00;99.90;;;;;;5057531;28;20253;-74
2022/04/28 03:57:54;;;;;;;9.00;8.17;;;3.90;99.90;;;;;;5055157;28;20608;-74
2022/04/28 04:00:20;;;;;;;8.87;7.97;;;3.90;99.90;;;;;;5055121;28;20184;-74
2022/04/28 04:02:46;;;;;;;9.00;8.20;;;3.90;99.90;;;;;;5052724;28;20270;-74
2022/04/28 04:05:12;;;;;;;9.03;8.30;;;4.00;99.90;;;;;;5055968;28;20215;-74
2022/04/28 04:07:42;;;;;;;8.30;7.50;;;4.00;99.90;;;;;;5058815;28;20252;-74
2022/04/28 04:10:09;;;;;;;8.73;7.83;;;4.00;99.90;;;;;;5054045;28;20195;-73
2022/04/28 04:12:35;;;;;;;8.33;7.57;;;4.00;99.90;;;;;;5049476;28;20560;-73
2022/04/28 04:15:01;;;;;;;9.50;8.50;;;4.00;99.90;;;;;;5055675;28;20720;-73
2022/04/28 04:17:27;;;;;;;9.30;8.40;;;4.00;99.90;;;;;;5059170;28;20642;-73
2022/04/28 04:19:52;;;;;;;8.73;8.03;;;3.90;99.90;;;;;;5057782;28;20187;-73
2022/04/28 04:22:18;;;;;;;9.67;7.77;;;3.90;99.90;;;;;;5052588;28;20201;-73
2022/04/28 04:24:44;;;;;;;8.80;7.90;;;3.90;99.90;;;;;;5057198;28;20515;-73
2022/04/28 04:27:10;;;;;;;8.43;7.70;;;4.00;99.90;;;;;;5057698;28;20195;-73
2022/04/28 04:29:37;;;;;;;9.57;8.60;;;4.00;99.90;;;;;;5052060;28;20214;-74
2022/04/28 04:32:18;;;;;;;10.73;7.73;;;4.00;99.90;;;;;;5053584;28;20182;-74
2022/04/28 04:34:48;;;;;;;8.13;7.43;;;4.00;99.90;;;;;;5057171;28;20285;-74
2022/04/28 04:37:14;;;;;;;8.50;7.60;;;4.00;99.90;;;;;;5050580;28;20598;-73
2022/04/28 04:39:43;;;;;;;8.70;7.83;;;4.10;99.90;;;;;;5057655;28;20562;-73
2022/04/28 04:42:09;;;;;;;9.20;8.20;;;4.10;99.90;;;;;;5051983;28;20262;-73
2022/04/28 04:44:35;;;;;;;9.40;8.47;;;4.10;99.90;;;;;;5050725;28;20207;-73
2022/04/28 04:47:01;;;;;;;10.33;9.10;;;4.20;99.90;;;;;;5049513;28;20184;-73
2022/04/28 04:49:26;;;;;;;8.90;8.00;;;4.20;99.90;;;;;;5056099;28;20179;-73
2022/04/28 04:51:52;;;;;;;10.00;9.10;;;4.30;99.90;;;;;;5052218;28;20262;-73
2022/04/28 04:54:18;;;;;;;8.93;8.07;;;4.30;99.90;;;;;;5052001;28;20267;-73
2022/04/28 04:56:44;;;;;;;9.30;8.50;;;4.40;99.90;;;;;;5050163;28;20712;-73
2022/04/28 04:59:10;;;;;;;8.57;7.77;;;4.50;99.90;;;;;;5048339;28;20191;-73
2022/04/28 05:01:35;;;;;;;8.70;8.00;;;4.50;99.90;;;;;;5047150;28;20179;-75
2022/04/28 05:04:01;;;;;;;10.10;9.17;;;4.50;99.90;;;;;;5054321;28;20249;-73
2022/04/28 05:06:27;;;;;;;8.60;7.90;;;4.60;99.90;;;;;;5051302;28;20702;-75
2022/04/28 05:08:53;;;;;;;10.47;9.47;;;4.60;99.90;;;;;;5031626;28;20188;-74
2022/04/28 05:11:19;;;;;;;10.27;9.27;;;4.70;99.90;;;;;;5051830;28;20547;-74
2022/04/28 05:13:44;;;;;;;9.30;8.40;;;4.70;99.90;;;;;;5057747;28;20267;-74
2022/04/28 05:16:10;;;;;;;8.50;7.80;;;4.90;99.90;;;;;;5052441;28;20613;-74
2022/04/28 05:18:36;;;;;;;9.00;8.20;;;5.00;99.90;;;;;;5040832;28;20180;-74
2022/04/28 05:21:03;;;;;;;8.83;8.03;;;5.10;99.90;;;;;;5054851;28;20229;-75
2022/04/28 05:23:29;;;;;;;9.40;8.60;;;5.20;99.90;;;;;;5049498;28;20555;-74
2022/04/28 05:25:55;;;;;;;10.17;9.17;;;5.10;99.90;;;;;;5052892;28;20208;-74
2022/04/28 05:28:20;;;;;;;9.70;8.80;;;5.20;99.90;;;;;;5057181;28;20218;-74
2022/04/28 05:30:46;;;;;;;9.70;8.80;;;5.20;99.90;;;;;;5053441;28;20440;-74
2022/04/28 05:33:12;;;;;;;8.57;7.77;;;5.30;99.90;;;;;;5058453;28;20258;-73
2022/04/28 05:35:40;;;;;;;8.70;7.90;;;5.40;99.90;;;;;;5060112;28;20206;-77
2022/04/28 05:38:08;;;;;;;9.07;8.17;;;5.50;99.90;;;;;;5044198;28;20176;-76
2022/04/28 05:40:34;;;;;;;8.97;8.20;;;5.60;99.90;;;;;;5050431;28;20708;-76
2022/04/28 05:45:46;;;;;;;8.77;8.07;;;5.70;99.90;;;;;;5051296;28;20226;-75
2022/04/28 05:48:17;;;;;;;8.00;7.30;;;5.70;99.90;;;;;;5054548;28;20558;-75
2022/04/28 05:50:43;;;;;;;9.27;8.50;;;5.80;99.90;;;;;;5039661;28;20179;-70
2022/04/28 05:53:10;;;;;;;8.83;7.93;;;5.90;99.90;;;;;;5050255;28;20708;-74
2022/04/28 05:55:37;;;;;;;9.03;8.23;;;6.00;99.90;;;;;;5053277;28;20215;-74
2022/04/28 05:58:03;;;;;;;8.70;8.00;;;6.10;99.90;;;;;;5049748;28;20207;-72
2022/04/28 06:00:30;;;;;;;8.40;7.60;;;6.20;99.90;;;;;;5048431;28;20192;-72
2022/04/28 06:02:56;;;;;;;7.82;7.18;;;6.30;99.90;;;;;;5042181;28;20335;-73
2022/04/28 06:05:21;;;;;;;7.43;6.83;;;6.50;99.90;;;;;;5042981;28;20306;-71
2022/04/28 06:07:47;;;;;;;8.68;7.88;;;6.60;99.90;;;;;;5040885;28;20224;-73
2022/04/28 06:10:13;;;;;;;10.90;8.07;;;6.70;99.90;;;;;;5046878;28;20275;-72
2022/04/28 06:12:42;;;;;;;9.73;8.55;;;6.70;99.90;;;;;;5039920;28;20179;-76
2022/04/28 06:15:09;;;;;;;10.50;8.40;;;6.70;99.90;;;;;;5046682;28;20265;-77
2022/04/28 06:17:35;;;;;;;8.70;7.90;;;6.90;99.90;;;;;;5023459;28;20271;-76
2022/04/28 06:20:00;;;;;;;8.57;7.72;;;7.00;99.90;;;;;;5045724;28;20302;-72
2022/04/28 06:22:27;;;;;;;7.40;6.80;;;7.20;99.90;;;;;;5039809;28;20184;-73
2022/04/28 06:24:54;;;;;;;7.95;6.97;;;7.20;99.90;;;;;;5030536;28;20223;-72
2022/04/28 06:27:20;;;;;;;7.82;7.13;;;7.30;99.90;;;;;;5043335;28;20188;-71
2022/04/28 06:29:48;;;;;;;7.57;6.97;;;7.50;99.90;;;;;;5052309;28;20179;-72
2022/04/28 06:32:16;;;;;;;7.05;6.45;;;7.60;99.90;;;;;;5053164;28;20655;-70
2022/04/28 06:34:43;;;;;;;6.80;6.20;;;7.80;99.90;;;;;;5035473;28;20182;-71
2022/04/28 06:37:08;;;;;;;7.10;6.50;;;8.00;99.90;;;;;;5057507;28;20186;-70
2022/04/28 06:39:34;;;;;;;6.30;5.80;;;8.10;99.90;;;;;;5047787;28;20189;-75
2022/04/28 06:42:00;;;;;;;6.63;6.03;;;8.30;99.90;;;;;;5047819;28;20615;-76
2022/04/28 06:44:25;;;;;;;6.55;5.95;;;8.40;99.90;;;;;;5029468;28;20291;-73
2022/04/28 06:46:51;;;;;;;6.97;6.20;;;8.50;99.90;;;;;;5058967;28;20668;-75
2022/04/28 06:49:17;;;;;;;7.90;7.10;;;8.60;99.90;;;;;;5050393;28;20184;-79
2022/04/28 06:51:43;;;;;;;6.20;5.70;;;8.60;99.90;;;;;;5052473;28;20175;-75
2022/04/28 06:54:09;;;;;;;6.88;6.22;;;8.70;99.90;;;;;;5049697;28;20712;-72
2022/04/28 06:56:34;;;;;;;6.40;5.53;;;8.80;99.90;;;;;;5051698;28;20294;-72
2022/04/28 06:59:00;;;;;;;6.85;5.68;;;8.90;99.90;;;;;;5057302;28;20578;-76
2022/04/28 07:01:26;;;;;;;6.07;5.65;;;9.10;99.90;;;;;;5055770;28;20651;-72
2022/04/28 07:03:51;;;;;;;6.72;6.03;;;9.30;99.90;;;;;;5053057;28;20184;-72
2022/04/28 07:06:17;;;;;;;7.47;5.90;;;9.40;99.90;;;;;;5052861;28;20208;-72
2022/04/28 07:08:43;;;;;;;6.75;6.00;;;9.50;99.90;;;;;;5051991;28;20176;-72
2022/04/28 07:11:09;;;;;;;6.60;5.90;;;9.60;99.90;;;;;;5044640;28;20259;-72
2022/04/28 07:13:38;;;;;;;6.55;5.95;;;9.70;99.90;;;;;;5058930;28;20559;-72
2022/04/28 07:16:04;;;;;;;6.88;6.28;;;9.80;99.90;;;;;;5051686;28;20200;-73
2022/04/28 07:18:30;;;;;;;6.47;5.88;;;9.90;99.90;;;;;;5047879;28;20674;-73
2022/04/28 07:20:58;;;;;;;7.97;7.18;;;10.10;99.90;;;;;;5058527;28;20175;-73
2022/04/28 07:23:24;;;;;;;7.25;6.45;;;10.30;99.90;;;;;;5050126;28;20186;-72
2022/04/28 07:25:49;;;;;;;6.53;6.03;;;10.40;99.90;;;;;;5053976;28;20589;-72
2022/04/28 07:28:15;;;;;;;7.15;6.38;;;10.50;99.90;;;;;;5049904;28;20187;-72
2022/04/28 07:30:41;;;;;;;6.72;6.05;;;10.60;99.90;;;;;;5055214;28;20222;-72
2022/04/28 07:33:08;;;;;;;8.00;6.28;;;10.80;99.90;;;;;;5051529;28;20275;-73
2022/04/28 07:35:34;;;;;;;6.75;6.15;;;11.00;99.90;;;;;;5053629;28;20196;-72
2022/04/28 07:38:00;;;;;;;6.68;6.10;;;11.10;99.90;;;;;;5049497;28;20174;-74
2022/04/28 07:40:25;;;;;;;6.63;6.05;;;11.20;99.90;;;;;;5050636;28;20192;-73
2022/04/28 07:42:51;;;;;;;8.38;6.20;;;11.40;99.90;;;;;;5057832;28;20233;-75
2022/04/28 07:45:17;;;;;;;6.13;5.57;;;11.50;99.90;;;;;;5051213;28;20211;-74
2022/04/28 07:47:42;;;;;;;6.90;6.30;;;11.60;99.90;;;;;;5063413;28;20171;-74
2022/04/28 07:50:08;;;;;;;7.47;6.88;;;11.70;99.90;;;;;;5053985;28;20184;-73
2022/04/28 07:52:34;;;;;;;6.97;6.38;;;11.80;99.90;;;;;;5057654;28;20548;-73
2022/04/28 07:55:00;;;;;;;6.18;5.68;;;12.00;99.90;;;;;;5055141;28;20196;-72
2022/04/28 07:57:25;;;;;;;7.90;6.53;;;12.10;99.90;;;;;;5048905;28;20200;-72
2022/04/28 07:59:51;;;;;;;6.88;6.28;;;12.20;99.90;;;;;;5050950;28;20639;-73
2022/04/28 08:02:17;;;;;;;6.22;5.72;;;12.40;99.90;;;;;;5039916;28;20255;-72
2022/04/28 08:04:43;;;;;;;6.65;6.05;;;12.50;99.90;;;;;;5042975;28;20211;-73
2022/04/28 08:07:09;;;;;;;7.90;6.45;;;12.60;99.90;;;;;;5047987;28;20180;-73
2022/04/28 08:09:34;;;;;;;6.30;5.75;;;12.70;99.90;;;;;;5041189;28;20644;-72
2022/04/28 08:12:00;;;;;;;6.50;5.90;;;12.90;99.90;;;;;;5039498;28;20177;-73
2022/04/28 08:14:26;;;;;;;6.95;6.35;;;13.00;99.90;;;;;;5042866;28;20187;-72
2022/04/28 08:16:52;;;;;;;7.25;6.38;;;13.10;99.90;;;;;;5043947;28;20187;-73
2022/04/28 08:19:19;;;;;;;6.63;6.00;;;13.20;99.90;;;;;;5041405;28;20212;-74
2022/04/28 08:21:45;;;;;;;6.55;5.95;;;13.20;99.90;;;;;;5045803;28;20175;-74
2022/04/28 08:24:11;;;;;;;6.50;5.90;;;13.30;99.90;;;;;;5042774;28;20203;-72
2022/04/28 08:26:37;;;;;;;7.07;6.40;;;13.50;99.90;;;;;;5045235;28;20673;-73
2022/04/28 08:29:03;;;;;;;6.07;5.57;;;13.70;99.90;;;;;;5042455;28;20184;-74
2022/04/28 08:31:28;;;;;;;6.20;5.70;;;13.80;99.90;;;;;;5040933;28;20513;-74
2022/04/28 08:33:54;;;;;;;6.68;5.97;;;13.90;99.90;;;;;;5043619;28;20234;-74
2022/04/28 08:36:20;;;;;;;6.65;5.80;;;14.00;99.90;;;;;;5050920;28;20260;-73
2022/04/28 08:38:46;;;;;;;6.93;6.20;;;14.20;99.90;;;;;;5049586;28;20174;-74
2022/04/28 08:41:16;;;;;;;6.80;6.10;;;14.20;99.90;;;;;;5041386;28;20259;-72
2022/04/28 08:43:43;;;;;;;5.78;5.38;;;14.30;99.90;;;;;;5047608;28;20178;-72
2022/04/28 08:48:56;;;;;;;6.72;6.03;;;14.60;99.90;;;;;;5048815;28;20229;-73
2022/04/28 08:51:26;;;;;;;6.43;5.78;;;14.80;99.90;;;;;;5053198;28;20262;-73
2022/04/28 08:53:53;;;;;;;5.78;5.28;;;14.90;99.90;;;;;;5057303;28;20175;-75
2022/04/28 08:56:20;;;;;;;6.07;5.68;;;15.00;99.90;;;;;;5050034;28;20435;-73
2022/04/28 08:58:46;;;;;;;5.80;5.30;;;15.10;99.90;;;;;;5057798;28;20210;-74
2022/04/28 09:01:12;;;;;;;6.13;5.63;;;15.50;99.90;;;;;;5048243;28;20176;-73
2022/04/28 09:03:38;;;;;;;5.82;5.32;;;16.10;99.90;;;;;;5045796;28;20830;-73
2022/04/28 09:06:25;;;;;;;5.53;5.10;;;16.70;99.90;;;;;;5051783;28;20204;-73
2022/04/28 09:08:51;;;;;;;5.95;5.43;;;17.00;99.90;;;;;;5033133;28;20203;-73
2022/04/28 09:11:24;;;;;;;7.85;6.38;;;17.60;99.90;;;;;;5047149;28;20179;-73
2022/04/28 09:14:09;;;;;;;7.60;5.70;;;18.00;99.90;;;;;;5040893;28;20198;-73
2022/04/28 09:16:41;;;;;;;5.45;5.05;;;18.40;99.90;;;;;;5047275;28;20687;-74
2022/04/28 09:19:07;;;;;;;6.03;5.47;;;18.60;99.90;;;;;;5055247;28;20271;-73
2022/04/28 09:21:34;;;;;;;4.72;4.32;;;18.80;99.90;;;;;;5052270;28;20207;-72
2022/04/28 09:24:00;;;;;;;5.90;5.40;;;19.20;99.90;;;;;;5053397;28;20208;-73
2022/04/28 09:26:26;;;;;;;12.98;5.57;;;19.50;99.50;;;;;;5047178;28;20207;-73
2022/04/28 09:28:55;;;;;;;6.00;5.30;;;19.50;95.70;;;;;;5060533;28;20548;-73
2022/04/28 09:31:23;;;;;;;5.85;5.35;;;19.40;94.80;;;;;;5049486;28;20191;-72
2022/04/28 09:33:49;;;;;;;6.82;5.35;;;19.80;92.40;;;;;;5051643;28;20195;-72
2022/04/28 09:36:15;;;;;;;6.68;5.20;;;20.20;91.90;;;;;;5044030;28;20568;-72
2022/04/28 09:38:41;;;;;;;5.15;4.75;;;22.40;91.10;;;;;;5046440;28;20187;-74
2022/04/28 09:44:06;;;;;;;5.88;4.85;;;28.80;60.40;;;;;;5000542;28;20214;-76
2022/04/28 09:46:31;;;;;;;4.60;4.25;;;31.40;53.50;;;;;;5049796;28;20202;-76
2022/04/28 09:48:58;;;;;;;4.10;3.80;;;33.30;46.80;;;;;;5055127;28;20179;-75
2022/04/28 09:51:25;;;;;;;4.07;3.63;;;34.70;44.20;;;;;;5054797;28;20179;-71
2022/04/28 09:53:51;;;;;;;4.40;4.10;;;34.00;36.60;;;;;;5058781;28;20175;-72
2022/04/28 09:56:23;;;;;;;4.30;4.00;;;33.40;38.20;;;;;;5047827;28;20606;-72
2022/04/28 09:58:50;;;;;;;3.92;3.53;;;33.10;39.20;;;;;;5051414;28;20225;-72
2022/04/28 10:01:16;;;;;;;5.45;3.42;;;33.60;39.60;;;;;;5058426;28;20522;-72
2022/04/28 10:03:43;;;;;;;4.03;3.60;;;34.50;38.80;;;;;;5050563;28;20188;-72
2022/04/28 10:06:09;;;;;;;3.90;3.50;;;33.50;36.20;;;;;;5054799;28;20187;-71
2022/04/28 10:08:37;;;;;;;3.67;3.38;;;33.60;36.90;;;;;;5052027;28;20600;-72
2022/04/28 10:11:05;;;;;;;4.65;3.33;;;34.90;36.40;;;;;;5041903;28;20886;-71
2022/04/28 10:13:32;;;;;;;3.50;3.20;;;35.70;33.60;;;;;;5049967;28;20241;-72
2022/04/28 10:16:04;;;;;;;3.40;3.10;;;35.80;33.60;;;;;;5045008;28;20292;-71
2022/04/28 10:18:37;;;;;;;3.10;2.90;;;35.10;35.10;;;;;;5047609;28;20195;-71
2022/04/28 10:21:06;;;;;;;3.60;3.30;;;34.90;33.80;;;;;;5050378;28;20188;-74
2022/04/28 10:35:01;;;;;;;3.95;3.67;;;37.70;32.40;;;;;;5053470;28;20195;-73
2022/04/28 10:37:31;;;;;;;3.50;3.30;;;38.70;30.30;;;;;;5046026;28;20180;-72
2022/04/28 10:39:57;;;;;;;4.68;3.53;;;38.80;30.90;;;;;;5052359;28;20178;-70
2022/04/28 10:42:29;;;;;;;3.80;3.42;;;39.10;30.20;;;;;;5059302;28;20673;-73
2022/04/28 10:44:57;;;;;;;3.63;3.42;;;39.50;29.50;;;;;;5050786;28;20760;-73
2022/04/28 10:47:34;;;;;;;4.30;3.90;;;39.10;30.80;;;;;;5051003;28;20206;-72
2022/04/28 10:50:00;;;;;;;3.30;3.10;;;38.60;31.00;;;;;;5058859;28;20230;-73
2022/04/28 10:52:26;;;;;;;3.53;3.33;;;39.60;29.80;;;;;;5058675;28;20277;-73
2022/04/28 10:55:01;;;;;;;3.70;3.50;;;38.70;29.90;;;;;;5034927;28;20578;-73
2022/04/28 10:57:37;;;;;;;3.40;3.13;;;38.40;30.20;;;;;;5057754;28;20277;-73
2022/04/28 11:00:03;;;;;;;3.75;3.47;;;38.70;27.90;;;;;;5047792;28;20212;-74
2022/04/28 11:02:34;;;;;;;3.45;3.25;;;39.10;29.00;;;;;;5055471;28;20183;-71
2022/04/28 11:05:03;;;;;;;2.92;2.72;;;38.80;28.00;;;;;;5054604;28;20289;-71
2022/04/28 11:07:31;;;;;;;3.45;3.17;;;38.30;29.30;;;;;;5052427;28;20184;-71
2022/04/28 11:10:07;;;;;;;3.50;3.30;;;38.70;28.50;;;;;;5051653;28;20167;-73
2022/04/28 11:12:37;;;;;;;3.72;3.05;;;35.70;29.00;;;;;;5058675;28;20182;-74
2022/04/28 11:15:06;;;;;;;2.97;2.88;;;34.30;30.90;;;;;;5056056;28;20211;-71
2022/04/28 11:17:33;;;;;;;3.38;3.10;;;34.60;30.80;;;;;;5056486;28;20596;-73
2022/04/28 11:20:06;;;;;;;3.28;3.00;;;35.20;29.60;;;;;;5059736;28;20190;-71
2022/04/28 11:22:32;;;;;;;3.53;3.30;;;34.70;29.90;;;;;;5048500;28;20262;-75
2022/04/28 11:24:59;;;;;;;3.53;3.33;;;35.40;31.00;;;;;;5053029;28;20221;-72
2022/04/28 11:27:27;;;;;;;4.32;3.92;;;35.30;30.50;;;;;;5034603;28;20241;-71
2022/04/28 11:29:56;;;;;;;5.55;3.95;;;34.10;30.20;;;;;;5049849;28;20182;-71
2022/04/28 11:32:22;;;;;;;3.90;3.70;;;31.90;32.60;;;;;;5054114;28;20187;-71
2022/04/28 11:34:50;;;;;;;4.55;3.92;;;30.60;33.60;;;;;;5056465;28;20198;-71
2022/04/28 11:37:24;;;;;;;4.40;4.10;;;30.10;36.00;;;;;;5044455;28;20229;-71
2022/04/28 11:39:52;;;;;;;4.50;4.10;;;29.70;33.60;;;;;;5051292;28;20202;-71
2022/04/28 11:42:18;;;;;;;3.92;3.72;;;28.80;35.80;;;;;;5049587;28;20192;-73
2022/04/28 11:44:45;;;;;;;4.22;3.83;;;28.20;36.20;;;;;;5047574;28;20204;-71
2022/04/28 11:47:11;;;;;;;5.40;4.20;;;28.00;35.80;;;;;;5050237;28;20183;-71
2022/04/28 11:49:39;;;;;;;3.67;3.38;;;29.40;36.50;;;;;;5042120;28;20179;-71
2022/04/28 11:52:29;;;;;;;3.70;3.50;;;31.60;35.70;;;;;;5041360;28;20175;-71
2022/04/28 11:55:01;;;;;;;4.18;3.83;;;33.30;33.30;;;;;;5052416;28;20206;-71
2022/04/28 11:57:28;;;;;;;3.42;3.22;;;35.30;31.80;;;;;;5055494;28;20191;-71
2022/04/28 11:59:54;;;;;;;4.18;3.85;;;35.80;30.20;;;;;;5054201;28;20236;-71
2022/04/28 12:02:28;;;;;;;3.25;3.05;;;36.40;28.90;;;;;;5050245;28;20520;-71
2022/04/28 12:04:55;;;;;;;3.97;3.38;;;36.30;29.30;;;;;;5047850;28;20214;-71
2022/04/28 12:07:22;;;;;;;3.45;2.78;;;37.00;30.00;;;;;;5048839;28;20229;-69
2022/04/28 12:15:25;;;;;;;3.25;3.00;;;35.70;28.60;;;;;;5047666;28;20226;-72
2022/04/28 12:20:56;;;;;;;3.50;3.28;;;31.40;32.90;;;;;;5039925;28;20274;-70
2022/04/28 12:23:34;;;;;;;3.38;3.10;;;29.80;34.40;;;;;;5035534;28;20252;-71
2022/04/28 12:26:06;;;;;;;3.58;3.20;;;29.00;35.30;;;;;;5060644;28;20194;-74
2022/04/28 12:28:32;;;;;;;3.72;3.38;;;28.40;35.50;;;;;;5048395;28;20258;-73
2022/04/28 12:30:59;;;;;;;5.97;3.20;;;27.50;36.70;;;;;;5034982;28;20179;-72
2022/04/28 12:33:27;;;;;;;3.22;2.97;;;26.70;37.60;;;;;;5049500;28;20229;-73
2022/04/28 12:35:57;;;;;;;3.40;3.20;;;26.30;38.10;;;;;;5044810;28;20214;-72
2022/04/28 12:38:26;;;;;;;3.45;3.15;;;26.20;38.80;;;;;;5042919;28;20176;-72
2022/04/28 12:40:52;;;;;;;3.45;3.25;;;26.10;38.80;;;;;;5037960;28;20184;-72
2022/04/28 12:43:37;;;;;;;3.78;3.47;;;25.90;39.60;;;;;;5050788;28;20242;-75
2022/04/28 12:46:06;;;;;;;3.83;3.45;;;25.50;38.50;;;;;;5046772;28;20211;-73
2022/04/28 12:48:36;;;;;;;3.92;3.55;;;25.70;39.80;;;;;;5054402;28;20175;-76
2022/04/28 12:51:15;;;;;;;3.28;3.08;;;27.70;38.10;;;;;;5055217;28;20221;-76
2022/04/28 12:53:47;;;;;;;3.25;3.05;;;29.00;36.00;;;;;;5046725;28;20661;-76
2022/04/28 12:56:16;;;;;;;3.33;3.13;;;31.30;32.80;;;;;;5048258;28;20210;-73
2022/04/28 12:58:48;;;;;;;2.78;2.67;;;32.70;30.20;;;;;;5047221;28;20661;-74
2022/04/28 13:01:17;;;;;;;2.20;2.10;;;33.40;30.50;;;;;;5042124;28;20183;-73
2022/04/28 13:03:57;;;;;;;2.80;2.60;;;35.30;29.50;;;;;;5040513;28;20313;-70
2022/04/28 13:06:24;;;;;;;2.85;2.58;;;37.90;28.30;;;;;;5039027;28;20235;-71
2022/04/28 13:08:53;;;;;;;2.25;2.05;;;38.70;27.10;;;;;;5038466;28;20171;-72
2022/04/28 13:11:22;;;;;;;2.05;1.83;;;38.60;28.00;;;;;;5040065;28;20179;-71
2022/04/28 13:13:48;;;;;;;2.20;2.10;;;38.70;28.20;;;;;;5039913;28;20176;-71
2022/04/28 13:16:13;;;;;;;2.72;2.38;;;36.80;28.20;;;;;;5039556;28;20278;-70
2022/04/28 13:18:39;;;;;;;2.25;2.05;;;34.80;29.70;;;;;;5036753;28;20316;-70
2022/04/28 13:21:07;;;;;;;2.58;2.47;;;32.80;30.20;;;;;;5037083;28;20597;-70
2022/04/28 13:23:32;;;;;;;2.85;2.40;;;31.30;32.10;;;;;;5038751;28;20172;-70
2022/04/28 13:25:58;;;;;;;2.50;2.40;;;30.40;34.20;;;;;;5045831;28;20285;-70
2022/04/28 13:28:24;;;;;;;2.47;2.30;;;30.00;34.90;;;;;;5045795;28;20262;-70
2022/04/28 13:30:49;;;;;;;2.92;2.72;;;29.20;34.90;;;;;;5046587;28;20253;-72